createdAt,value
2023-03-24T00:01:22.993Z,44.66
2023-03-24T00:03:52.306Z,44.67
2023-03-24T00:06:22.508Z,44.63
2023-03-24T00:08:50.442Z,44.49
2023-03-24T00:11:19.456Z,44.67
2023-03-24T00:13:50.008Z,44.44
2023-03-24T00:16:19.730Z,44.45
2023-03-24T00:18:52.766Z,44.61
2023-03-24T00:21:23.526Z,44.67
2023-03-24T00:23:58.189Z,44.42
2023-03-24T00:26:26.201Z,44.62
2023-03-24T00:28:54.864Z,44.54
2023-03-24T00:31:24.244Z,44.54
2023-03-24T00:33:52.182Z,44.49
2023-03-24T00:36:23.139Z,44.59
2023-03-24T00:38:51.573Z,44.49
2023-03-24T00:41:20.569Z,44.71
2023-03-24T00:43:50.029Z,44.63
2023-03-24T00:46:27.613Z,44.56
2023-03-24T00:49:05.765Z,44.59
2023-03-24T00:51:40.166Z,44.57
2023-03-24T00:54:12.557Z,44.43
2023-03-24T00:56:41.504Z,44.51
2023-03-24T00:59:10.254Z,44.52
2023-03-24T01:01:41.138Z,44.43
2023-03-24T01:04:10.416Z,44.35
2023-03-24T01:06:39.540Z,44.23
2023-03-24T01:09:07.807Z,44.19
2023-03-24T01:11:41.165Z,44.08
2023-03-24T01:14:11.124Z,44.02
2023-03-24T01:16:39.232Z,43.88
2023-03-24T01:19:09.309Z,44.00
2023-03-24T01:21:38.987Z,43.86
2023-03-24T01:24:06.755Z,43.94
2023-03-24T01:26:34.739Z,43.79
2023-03-24T01:29:02.538Z,43.51
2023-03-24T01:31:30.091Z,43.61
2023-03-24T01:33:57.736Z,43.76
2023-03-24T01:36:25.642Z,43.80
2023-03-24T01:38:53.400Z,43.66
2023-03-24T01:41:21.328Z,43.62
2023-03-24T01:43:48.956Z,43.41
2023-03-24T01:46:23.053Z,43.36
2023-03-24T01:48:59.825Z,43.39
2023-03-24T01:51:41.885Z,43.42
2023-03-24T01:54:40.579Z,43.44
2023-03-24T01:57:20.695Z,43.62
2023-03-24T01:59:53.741Z,43.49
2023-03-24T02:02:54.626Z,43.49
2023-03-24T02:05:29.575Z,43.79
2023-03-24T02:08:16.206Z,43.75
2023-03-24T02:10:45.123Z,43.64
2023-03-24T02:13:13.166Z,43.74
2023-03-24T02:16:19.764Z,43.92
2023-03-24T02:20:05.724Z,43.82
2023-03-24T02:23:04.335Z,43.24
2023-03-24T02:25:49.438Z,43.58
2023-03-24T02:29:22.087Z,43.63
2023-03-24T02:32:24.598Z,43.54
2023-03-24T02:35:26.337Z,43.72
2023-03-24T02:38:21.523Z,43.55
2023-03-24T02:41:19.175Z,43.79
2023-03-24T02:44:22.798Z,43.85
2023-03-24T02:47:07.568Z,43.64
2023-03-24T02:50:01.322Z,43.69
2023-03-24T02:52:53.219Z,43.66
2023-03-24T02:55:36.108Z,43.58
2023-03-24T02:58:12.397Z,43.69
2023-03-24T03:00:59.492Z,43.84
2023-03-24T03:04:14.343Z,43.70
2023-03-24T03:06:49.350Z,43.57
2023-03-24T03:09:21.348Z,43.47
2023-03-24T03:11:53.573Z,43.56
2023-03-24T03:14:48.234Z,43.39
2023-03-24T03:17:30.463Z,43.35
2023-03-24T03:20:07.894Z,43.45
2023-03-24T03:23:07.457Z,43.48
2023-03-24T03:25:42.204Z,43.38
2023-03-24T03:28:11.913Z,43.89
2023-03-24T03:30:47.598Z,43.50
2023-03-24T03:33:27.510Z,43.78
2023-03-24T03:36:07.371Z,43.58
2023-03-24T03:38:58.604Z,43.51
2023-03-24T03:41:26.847Z,43.71
2023-03-24T03:43:55.304Z,43.62
2023-03-24T03:46:23.383Z,43.60
2023-03-24T03:48:51.470Z,43.79
2023-03-24T03:51:19.999Z,43.64
2023-03-24T03:54:01.176Z,43.77
2023-03-24T03:56:33.998Z,43.93
2023-03-24T03:59:44.193Z,43.70
2023-03-24T04:02:52.584Z,43.92
2023-03-24T04:05:33.284Z,43.92
2023-03-24T04:08:51.323Z,43.56
2023-03-24T04:11:46.301Z,43.64
2023-03-24T04:14:51.378Z,43.66
2023-03-24T04:18:16.932Z,43.39
2023-03-24T04:21:33.599Z,43.39
2023-03-24T04:24:51.886Z,43.18
2023-03-24T04:28:01.936Z,43.10
2023-03-24T04:30:46.071Z,43.08
2023-03-24T04:33:52.414Z,43.11
2023-03-24T04:36:31.708Z,43.13
2023-03-24T04:39:38.854Z,43.14
2023-03-24T04:42:26.535Z,43.25
2023-03-24T04:44:57.664Z,43.20
2023-03-24T04:47:56.987Z,43.24
2023-03-24T04:50:58.783Z,43.22
2023-03-24T04:53:29.243Z,43.25
2023-03-24T04:56:28.396Z,43.11
2023-03-24T04:59:04.303Z,43.35
2023-03-24T05:01:32.697Z,43.43
2023-03-24T05:04:37.248Z,44.27
2023-03-24T05:07:21.381Z,44.81
2023-03-24T05:09:52.298Z,45.42
2023-03-24T05:12:19.854Z,45.81
2023-03-24T05:15:07.740Z,47.04
2023-03-24T05:17:36.613Z,48.58
2023-03-24T05:20:12.358Z,48.88
2023-03-24T05:22:43.561Z,49.75
2023-03-24T05:25:11.436Z,49.74
2023-03-24T05:27:39.134Z,50.31
2023-03-24T05:30:20.166Z,50.40
2023-03-24T05:32:49.095Z,50.40
2023-03-24T05:35:16.832Z,50.65
2023-03-24T05:37:44.522Z,51.00
2023-03-24T05:40:12.971Z,51.03
2023-03-24T05:42:51.686Z,51.05
2023-03-24T05:45:20.240Z,51.18
2023-03-24T05:47:48.373Z,51.33
2023-03-24T05:50:19.760Z,51.35
2023-03-24T05:52:47.978Z,51.38
2023-03-24T05:55:36.040Z,51.40
2023-03-24T05:58:15.668Z,51.50
2023-03-24T06:00:49.984Z,51.27
2023-03-24T06:03:34.090Z,51.54
2023-03-24T06:06:08.714Z,51.72
2023-03-24T06:08:38.367Z,51.73
2023-03-24T06:11:06.656Z,51.88
2023-03-24T06:13:43.956Z,51.65
2023-03-24T06:16:11.583Z,51.77
2023-03-24T06:18:53.025Z,51.85
2023-03-24T06:21:38.952Z,51.75
2023-03-24T06:24:06.958Z,52.06
2023-03-24T06:26:36.394Z,51.84
2023-03-24T06:29:04.698Z,51.65
2023-03-24T06:31:37.440Z,51.89
2023-03-24T06:34:06.366Z,51.86
2023-03-24T06:36:34.688Z,51.95
2023-03-24T06:39:04.364Z,52.07
2023-03-24T06:41:32.389Z,52.17
2023-03-24T06:44:01.931Z,52.25
2023-03-24T06:46:29.627Z,52.10
2023-03-24T06:48:57.297Z,52.12
2023-03-24T06:51:25.203Z,51.93
2023-03-24T06:53:53.078Z,52.07
2023-03-24T06:56:23.341Z,52.09
2023-03-24T06:58:57.829Z,52.15
2023-03-24T07:01:30.146Z,51.99
2023-03-24T07:04:06.287Z,52.27
2023-03-24T07:07:08.577Z,52.37
2023-03-24T07:09:44.638Z,52.61
2023-03-24T07:12:14.656Z,52.75
2023-03-24T07:14:42.867Z,52.82
2023-03-24T07:17:10.675Z,52.76
2023-03-24T07:19:45.714Z,53.08
2023-03-24T07:22:48.211Z,52.82
2023-03-24T07:25:25.596Z,53.30
2023-03-24T07:27:59.848Z,53.39
2023-03-24T07:30:39.391Z,53.49
2023-03-24T07:33:12.467Z,53.55
2023-03-24T07:35:42.925Z,53.96
2023-03-24T07:38:11.734Z,54.10
2023-03-24T07:40:39.681Z,54.37
2023-03-24T07:43:07.254Z,55.11
2023-03-24T07:45:55.206Z,55.05
2023-03-24T07:48:22.822Z,55.26
2023-03-24T07:50:54.052Z,55.43
2023-03-24T07:53:47.664Z,55.41
2023-03-24T07:56:22.513Z,55.39
2023-03-24T07:58:56.926Z,55.34
2023-03-24T08:01:45.023Z,55.55
2023-03-24T08:04:14.919Z,55.69
2023-03-24T08:07:03.005Z,55.69
2023-03-24T08:09:30.650Z,55.96
2023-03-24T08:12:00.575Z,55.86
2023-03-24T08:14:34.616Z,55.92
2023-03-24T08:17:02.335Z,56.19
2023-03-24T08:19:29.944Z,56.40
2023-03-24T08:21:57.474Z,56.32
2023-03-24T08:24:25.495Z,56.25
2023-03-24T08:26:53.545Z,56.03
2023-03-24T08:29:21.165Z,55.93
2023-03-24T08:31:48.737Z,55.90
2023-03-24T08:34:16.245Z,55.88
2023-03-24T08:36:43.767Z,55.79
2023-03-24T08:39:11.292Z,55.42
2023-03-24T08:41:38.854Z,55.33
2023-03-24T08:44:07.475Z,55.29
2023-03-24T08:46:35.401Z,55.48
2023-03-24T08:49:03.997Z,55.50
2023-03-24T08:51:32.544Z,55.52
2023-03-24T08:54:01.430Z,55.27
2023-03-24T08:56:29.258Z,55.37
2023-03-24T08:58:57.907Z,55.16
2023-03-24T09:01:25.629Z,55.09
2023-03-24T09:03:53.376Z,54.89
2023-03-24T09:06:21.422Z,54.89
2023-03-24T09:08:48.938Z,54.34
2023-03-24T09:11:20.932Z,54.30
2023-03-24T09:13:49.345Z,54.30
2023-03-24T09:16:17.879Z,54.12
2023-03-24T09:18:46.333Z,53.91
2023-03-24T09:21:14.259Z,54.07
2023-03-24T09:23:42.492Z,53.74
2023-03-24T09:26:10.127Z,54.19
2023-03-24T09:28:37.822Z,54.27
2023-03-24T09:31:06.447Z,54.02
2023-03-24T09:33:34.934Z,54.12
2023-03-24T09:36:05.021Z,54.08
2023-03-24T09:38:34.910Z,53.76
2023-03-24T09:41:03.587Z,53.72
2023-03-24T09:43:42.387Z,53.37
2023-03-24T09:46:24.716Z,53.34
2023-03-24T09:48:57.441Z,53.04
2023-03-24T09:51:27.904Z,52.98
2023-03-24T09:54:27.260Z,52.85
2023-03-24T09:56:57.235Z,52.38
2023-03-24T09:59:39.625Z,52.26
2023-03-24T10:02:20.140Z,52.04
2023-03-24T10:04:48.892Z,51.89
2023-03-24T10:07:40.307Z,51.83
2023-03-24T10:10:31.992Z,51.10
2023-03-24T10:13:11.890Z,49.72
2023-03-24T10:15:52.064Z,49.73
2023-03-24T10:18:34.131Z,49.95
2023-03-24T10:21:17.878Z,49.68
2023-03-24T10:24:18.608Z,49.42
2023-03-24T10:27:22.848Z,49.36
2023-03-24T10:30:00.914Z,49.21
2023-03-24T10:32:32.867Z,48.74
2023-03-24T10:35:09.397Z,48.49
2023-03-24T10:37:37.769Z,48.67
2023-03-24T10:40:25.037Z,48.76
2023-03-24T10:43:06.423Z,48.30
2023-03-24T10:45:40.870Z,48.02
2023-03-24T10:48:09.491Z,47.88
2023-03-24T10:50:44.143Z,47.81
2023-03-24T10:53:20.941Z,47.63
2023-03-24T10:55:48.970Z,47.53
2023-03-24T10:58:43.294Z,47.60
2023-03-24T11:01:26.108Z,47.35
2023-03-24T11:04:01.188Z,46.98
2023-03-24T11:06:29.130Z,47.31
2023-03-24T11:09:20.010Z,47.33
2023-03-24T11:11:47.844Z,47.04
2023-03-24T11:14:25.416Z,47.00
2023-03-24T11:17:17.418Z,46.49
2023-03-24T11:19:53.569Z,46.53
2023-03-24T11:22:21.774Z,46.26
2023-03-24T11:24:52.659Z,46.20
2023-03-24T11:27:20.426Z,45.79
2023-03-24T11:29:54.594Z,45.99
2023-03-24T11:32:27.877Z,45.41
2023-03-24T11:35:07.759Z,45.78
2023-03-24T11:37:37.329Z,45.63
2023-03-24T11:40:20.631Z,45.57
2023-03-24T11:42:57.381Z,45.49
2023-03-24T11:45:39.189Z,45.98
2023-03-24T11:48:45.508Z,45.96
2023-03-24T11:51:23.503Z,46.29
2023-03-24T11:53:53.765Z,46.98
2023-03-24T11:56:43.090Z,47.13
2023-03-24T11:59:49.435Z,46.93
2023-03-24T12:02:47.969Z,46.95
2023-03-24T12:05:42.250Z,47.09
2023-03-24T12:08:27.099Z,46.90
2023-03-24T12:11:08.112Z,46.89
2023-03-24T12:13:51.523Z,46.65
2023-03-24T12:16:40.862Z,46.40
2023-03-24T12:19:26.561Z,46.46
2023-03-24T12:22:38.548Z,46.36
2023-03-24T12:25:58.794Z,46.39
2023-03-24T12:28:58.378Z,46.23
2023-03-24T12:31:56.890Z,46.23
2023-03-24T12:34:55.967Z,46.36
2023-03-24T12:37:59.764Z,46.55
2023-03-24T12:41:05.789Z,46.47
2023-03-24T12:44:27.566Z,46.59
2023-03-24T12:47:04.173Z,46.92
2023-03-24T12:49:50.586Z,46.67
2023-03-24T12:53:07.790Z,46.78
2023-03-24T12:55:43.484Z,46.25
2023-03-24T12:58:26.804Z,46.35
2023-03-24T13:01:32.866Z,46.93
2023-03-24T13:04:12.823Z,47.88
2023-03-24T13:06:59.179Z,48.53
2023-03-24T13:09:55.691Z,49.19
2023-03-24T13:12:42.140Z,49.53
2023-03-24T13:15:09.895Z,50.32
2023-03-24T13:18:11.633Z,51.30
2023-03-24T13:20:54.070Z,52.49
2023-03-24T13:23:21.890Z,51.75
2023-03-24T13:26:11.740Z,52.25
2023-03-24T13:28:59.080Z,52.26
2023-03-24T13:31:31.426Z,52.46
2023-03-24T13:34:00.375Z,52.07
2023-03-24T13:37:11.811Z,53.61
2023-03-24T13:39:39.723Z,53.01
2023-03-24T13:42:07.734Z,53.23
2023-03-24T13:44:44.309Z,53.99
2023-03-24T13:47:17.704Z,54.07
2023-03-24T13:50:01.273Z,53.92
2023-03-24T13:52:40.074Z,53.41
2023-03-24T13:55:34.504Z,55.17
2023-03-24T13:58:19.136Z,55.53
2023-03-24T14:01:31.521Z,56.15
2023-03-24T14:04:48.434Z,55.42
2023-03-24T14:07:39.621Z,54.88
2023-03-24T14:10:16.505Z,54.40
2023-03-24T14:12:58.891Z,54.67
2023-03-24T14:15:50.569Z,54.83
2023-03-24T14:18:24.797Z,55.17
2023-03-24T14:21:02.509Z,55.55
2023-03-24T14:23:39.140Z,56.00
2023-03-24T14:26:21.268Z,56.36
2023-03-24T14:28:57.160Z,56.52
2023-03-24T14:31:33.750Z,56.19
2023-03-24T14:34:15.435Z,57.68
2023-03-24T14:36:45.339Z,57.25
2023-03-24T14:39:31.756Z,57.02
2023-03-24T14:41:59.736Z,56.88
2023-03-24T14:44:55.261Z,57.02
2023-03-24T14:47:43.398Z,56.01
2023-03-24T14:50:19.665Z,55.57
2023-03-24T14:52:54.894Z,55.97
2023-03-24T14:55:23.216Z,55.61
2023-03-24T14:58:22.229Z,55.43
2023-03-24T15:01:06.926Z,54.90
2023-03-24T15:04:00.791Z,54.70
2023-03-24T15:06:29.121Z,54.43
2023-03-24T15:08:59.887Z,54.52
2023-03-24T15:11:39.519Z,54.12
2023-03-24T15:14:25.300Z,53.67
2023-03-24T15:17:04.146Z,53.47
2023-03-24T15:19:33.894Z,53.35
2023-03-24T15:22:12.793Z,53.32
2023-03-24T15:24:47.268Z,53.07
2023-03-24T15:27:26.512Z,53.31
2023-03-24T15:29:59.129Z,53.03
2023-03-24T15:32:32.098Z,53.09
2023-03-24T15:35:05.570Z,53.11
2023-03-24T15:37:41.087Z,53.04
2023-03-24T15:40:27.462Z,52.70
2023-03-24T15:42:59.122Z,52.59
2023-03-24T15:45:33.156Z,52.56
2023-03-24T15:48:18.326Z,52.24
2023-03-24T15:51:09.186Z,52.38
2023-03-24T15:53:56.158Z,52.32
2023-03-24T15:56:32.103Z,52.10
2023-03-24T15:59:05.485Z,52.31
2023-03-24T16:01:38.329Z,52.14
2023-03-24T16:04:14.184Z,51.32
2023-03-24T16:06:48.649Z,51.30
2023-03-24T16:09:21.784Z,50.94
2023-03-24T16:11:49.359Z,50.26
2023-03-24T16:14:29.689Z,49.63
2023-03-24T16:17:00.769Z,49.28
2023-03-24T16:19:28.601Z,48.62
2023-03-24T16:21:56.491Z,48.89
2023-03-24T16:24:24.154Z,48.80
2023-03-24T16:26:51.726Z,48.35
2023-03-24T16:29:24.064Z,48.47
2023-03-24T16:31:56.754Z,47.99
2023-03-24T16:34:24.628Z,48.39
2023-03-24T16:36:54.936Z,48.57
2023-03-24T16:39:27.877Z,48.32
2023-03-24T16:41:56.667Z,48.17
2023-03-24T16:44:25.096Z,48.14
2023-03-24T16:46:54.838Z,47.98
2023-03-24T16:49:24.006Z,48.07
2023-03-24T16:51:53.768Z,47.79
2023-03-24T16:54:21.829Z,48.00
2023-03-24T16:56:49.758Z,48.01
2023-03-24T16:59:17.428Z,47.58
2023-03-24T17:01:47.249Z,47.76
2023-03-24T17:04:22.279Z,47.79
2023-03-24T17:06:53.423Z,47.56
2023-03-24T17:09:22.147Z,47.66
2023-03-24T17:11:55.885Z,47.56
2023-03-24T17:14:24.065Z,47.86
2023-03-24T17:16:53.423Z,47.72
2023-03-24T17:19:23.681Z,48.12
2023-03-24T17:22:04.751Z,48.07
2023-03-24T17:24:36.718Z,47.90
2023-03-24T17:27:14.398Z,48.08
2023-03-24T17:29:41.908Z,48.04
2023-03-24T17:32:11.975Z,48.02
2023-03-24T17:34:41.681Z,48.07
2023-03-24T17:37:09.194Z,48.17
2023-03-24T17:39:36.925Z,48.25
2023-03-24T17:42:04.665Z,48.36
2023-03-24T17:44:33.686Z,48.46
2023-03-24T17:47:01.290Z,48.41
2023-03-24T17:49:28.845Z,48.56
2023-03-24T17:51:56.357Z,48.79
2023-03-24T17:54:25.426Z,48.94
2023-03-24T17:56:52.985Z,49.07
2023-03-24T17:59:20.578Z,49.09
2023-03-24T18:01:48.155Z,49.26
2023-03-24T18:04:15.927Z,49.45
2023-03-24T18:06:46.152Z,49.59
2023-03-24T18:09:14.007Z,49.73
2023-03-24T18:11:41.534Z,49.99
2023-03-24T18:14:09.214Z,50.21
2023-03-24T18:16:39.150Z,50.33
2023-03-24T18:19:07.053Z,50.52
2023-03-24T18:21:34.589Z,50.71
2023-03-24T18:24:02.290Z,50.38
2023-03-24T18:26:30.605Z,50.56
2023-03-24T18:28:58.193Z,50.56
2023-03-24T18:31:26.086Z,50.74
2023-03-24T18:33:55.178Z,50.54
2023-03-24T18:36:26.226Z,50.73
2023-03-24T18:39:01.829Z,50.91
2023-03-24T18:41:30.412Z,50.81
2023-03-24T18:43:59.514Z,51.02
2023-03-24T18:46:27.505Z,51.17
2023-03-24T18:48:55.474Z,51.16
2023-03-24T18:51:25.525Z,51.03
2023-03-24T18:53:53.452Z,51.43
2023-03-24T18:56:23.273Z,51.39
2023-03-24T18:58:52.352Z,51.20
2023-03-24T19:01:26.102Z,51.13
2023-03-24T19:03:53.808Z,51.34
2023-03-24T19:06:22.102Z,51.16
2023-03-24T19:08:51.984Z,51.16
2023-03-24T19:11:20.076Z,51.35
2023-03-24T19:13:50.480Z,51.58
2023-03-24T19:16:20.384Z,51.44
2023-03-24T19:18:50.327Z,51.45
2023-03-24T19:21:19.591Z,51.53
2023-03-24T19:23:47.139Z,51.35
2023-03-24T19:26:19.992Z,51.45
2023-03-24T19:28:47.528Z,51.46
2023-03-24T19:31:18.476Z,51.56
2023-03-24T19:33:47.337Z,51.35
2023-03-24T19:36:15.844Z,51.68
2023-03-24T19:38:44.102Z,51.64
2023-03-24T19:41:14.292Z,51.65
2023-03-24T19:43:41.890Z,51.76
2023-03-24T19:46:09.479Z,51.96
2023-03-24T19:48:37.331Z,51.76
2023-03-24T19:51:05.343Z,51.65
2023-03-24T19:53:33.023Z,51.66
2023-03-24T19:56:01.280Z,51.62
2023-03-24T19:58:29.112Z,51.50
2023-03-24T20:00:57.011Z,51.50
2023-03-24T20:03:25.800Z,51.52
2023-03-24T20:05:53.453Z,51.40
2023-03-24T20:08:21.596Z,51.36
2023-03-24T20:10:49.138Z,51.48
2023-03-24T20:13:16.656Z,50.98
2023-03-24T20:15:46.638Z,51.28
2023-03-24T20:18:14.354Z,51.32
2023-03-24T20:20:42.485Z,51.21
2023-03-24T20:23:10.505Z,51.17
2023-03-24T20:25:42.584Z,51.26
2023-03-24T20:28:10.417Z,51.15
2023-03-24T20:30:39.879Z,51.25
2023-03-24T20:33:07.758Z,51.24
2023-03-24T20:35:36.491Z,51.03
2023-03-24T20:38:04.316Z,50.97
2023-03-24T20:40:31.890Z,50.97
2023-03-24T20:42:59.901Z,51.05
2023-03-24T20:45:27.483Z,51.09
2023-03-24T20:47:55.376Z,50.99
2023-03-24T20:50:23.020Z,51.08
2023-03-24T20:52:51.114Z,50.99
2023-03-24T20:55:18.685Z,50.99
2023-03-24T20:57:47.427Z,51.05
2023-03-24T21:00:15.563Z,50.96
2023-03-24T21:02:43.751Z,50.92
2023-03-24T21:05:11.685Z,50.77
2023-03-24T21:07:43.494Z,50.96
2023-03-24T21:10:11.419Z,50.97
2023-03-24T21:12:53.053Z,50.81
2023-03-24T21:15:24.896Z,50.71
2023-03-24T21:17:53.349Z,50.91
2023-03-24T21:20:21.598Z,51.02
2023-03-24T21:22:55.549Z,50.94
2023-03-24T21:25:27.450Z,51.01
2023-03-24T21:27:55.938Z,51.25
2023-03-24T21:30:25.929Z,51.05
2023-03-24T21:32:56.633Z,50.80
2023-03-24T21:35:24.951Z,50.63
2023-03-24T21:37:53.664Z,50.57
2023-03-24T21:40:25.363Z,50.53
2023-03-24T21:42:55.771Z,50.41
2023-03-24T21:45:23.874Z,50.49
2023-03-24T21:47:54.819Z,50.57
2023-03-24T21:50:23.217Z,50.42
2023-03-24T21:52:54.729Z,50.51
2023-03-24T21:55:23.252Z,50.39
2023-03-24T21:57:51.868Z,50.36
2023-03-24T22:00:23.916Z,50.59
2023-03-24T22:02:54.070Z,50.53
2023-03-24T22:05:27.867Z,50.39
2023-03-24T22:07:55.886Z,50.23
2023-03-24T22:10:23.404Z,50.11
2023-03-24T22:12:53.176Z,50.53
2023-03-24T22:15:21.729Z,50.38
2023-03-24T22:17:50.281Z,50.20
2023-03-24T22:20:18.193Z,50.00
2023-03-24T22:22:46.234Z,50.26
2023-03-24T22:25:17.944Z,50.08
2023-03-24T22:27:49.444Z,50.00
2023-03-24T22:30:18.998Z,50.06
2023-03-24T22:32:46.571Z,50.02
2023-03-24T22:35:14.648Z,50.19
2023-03-24T22:37:42.574Z,50.30
2023-03-24T22:40:10.459Z,50.33
2023-03-24T22:42:38.395Z,50.38
2023-03-24T22:45:06.786Z,50.60
2023-03-24T22:47:34.384Z,50.75
2023-03-24T22:50:02.323Z,51.02
2023-03-24T22:52:30.465Z,51.21
2023-03-24T22:54:58.028Z,51.29
2023-03-24T22:57:25.582Z,52.02
2023-03-24T22:59:53.179Z,52.61
2023-03-24T23:02:24.399Z,53.42
2023-03-24T23:04:52.183Z,53.81
2023-03-24T23:07:22.665Z,54.31
2023-03-24T23:09:50.336Z,54.06
2023-03-24T23:12:17.929Z,53.89
2023-03-24T23:14:46.357Z,53.71
2023-03-24T23:17:15.725Z,53.21
2023-03-24T23:19:43.507Z,53.01
2023-03-24T23:22:11.195Z,52.85
2023-03-24T23:24:39.281Z,53.16
2023-03-24T23:27:07.074Z,53.27
2023-03-24T23:29:37.668Z,53.01
2023-03-24T23:32:06.214Z,52.93
2023-03-24T23:34:34.806Z,52.99
2023-03-24T23:37:04.955Z,52.53
2023-03-24T23:39:33.951Z,52.90
2023-03-24T23:42:01.448Z,52.47
2023-03-24T23:44:28.985Z,52.84
2023-03-24T23:46:56.686Z,53.42
2023-03-24T23:49:24.312Z,54.38
2023-03-24T23:51:51.875Z,53.61
2023-03-24T23:54:19.531Z,54.26
2023-03-24T23:56:47.150Z,53.93
2023-03-24T23:59:14.858Z,53.85
